Time;durP1;ratioP1;P1;durP2;ratioP2;P2;SDS_P1;SDS_P2;PMS_P1;PMS_P2;Temp;Humidity;BMP_temperature;BMP_pressure;BME280_temperature;BME280_humidity;BME280_pressure;Samples;Min_cycle;Max_cycle;Signal;HPM_P1;HPM_P2
2021/11/26 17:42:16;;;;;;;17.27;9.45;;;;;;;;;;1527569;24;20317;-86
2021/11/26 17:44:42;;;;;;;16.52;7.70;;;;;;;;;;4769802;30;20031;-84
2021/11/26 17:47:08;;;;;;;14.02;7.35;;;;;;;;;;4772820;30;20029;-84
2021/11/26 17:49:34;;;;;;;13.80;7.78;;;;;;;;;;4773273;30;20043;-85
2021/11/26 17:52:01;;;;;;;15.40;8.25;;;;;;;;;;4792048;29;20023;-84
2021/11/26 17:54:31;;;;;;;11.88;6.38;;;;;;;;;;4779444;30;20031;-83
2021/11/26 17:56:59;;;;;;;12.25;6.85;;;;;;;;;;4756574;30;20036;-84
2021/11/26 17:59:25;;;;;;;11.77;6.68;;;;;;;;;;4757115;30;20126;-85
2021/11/26 18:01:52;;;;;;;14.48;7.32;;;;;;;;;;4773571;30;20043;-84
2021/11/26 18:04:25;;;;;;;12.95;6.70;;;;;;;;;;4773201;30;20162;-84
2021/11/26 18:06:55;;;;;;;12.45;6.78;;;;;;;;;;4774862;30;20035;-84
2021/11/26 18:09:28;;;;;;;13.70;7.18;;;;;;;;;;4758791;30;20184;-83
2021/11/26 18:12:12;;;;;;;;;;;;;;;;;;4773572;30;20032;-83
2021/11/26 18:14:42;;;;;;;12.85;7.53;;;;;;;;;;4776719;30;19920;-83
2021/11/26 18:17:08;;;;;;;13.20;6.60;;;;;;;;;;4778612;30;20028;-83
2021/11/26 18:19:34;;;;;;;14.90;7.80;;;;;;;;;;4777742;30;20144;-82
2021/11/26 18:22:00;;;;;;;12.00;7.13;;;;;;;;;;4760618;30;20038;-83
2021/11/26 18:24:26;;;;;;;11.90;6.68;;;;;;;;;;4759470;30;20032;-83
2021/11/26 18:26:52;;;;;;;12.73;6.82;;;;;;;;;;4778233;30;20323;-83
2021/11/26 18:29:19;;;;;;;13.32;7.32;;;;;;;;;;4763836;30;20028;-84
2021/11/26 18:31:45;;;;;;;13.07;7.43;;;;;;;;;;4784182;30;20023;-84
2021/11/26 18:34:11;;;;;;;15.32;7.40;;;;;;;;;;4785347;30;20060;-84
2021/11/26 18:36:37;;;;;;;10.48;6.35;;;;;;;;;;4778490;30;20033;-82
2021/11/26 18:39:05;;;;;;;13.75;7.65;;;;;;;;;;4779114;30;20044;-83
2021/11/26 18:41:32;;;;;;;14.27;7.40;;;;;;;;;;4778430;30;20035;-82
2021/11/26 18:43:58;;;;;;;15.38;8.30;;;;;;;;;;4777191;30;20047;-83
2021/11/26 18:46:25;;;;;;;12.32;6.50;;;;;;;;;;4779000;30;20083;-83
2021/11/26 18:48:55;;;;;;;12.43;7.40;;;;;;;;;;4763206;30;20039;-82
2021/11/26 18:51:21;;;;;;;15.45;8.82;;;;;;;;;;4758491;30;20040;-83
2021/11/26 18:53:47;;;;;;;14.00;8.25;;;;;;;;;;4770389;30;20126;-83
2021/11/26 18:56:13;;;;;;;14.63;7.38;;;;;;;;;;4758580;30;20088;-83
2021/11/26 18:58:40;;;;;;;13.40;7.93;;;;;;;;;;4759520;30;20046;-81
2021/11/26 19:01:07;;;;;;;17.88;8.02;;;;;;;;;;4776589;30;20064;-82
2021/11/26 19:03:33;;;;;;;13.63;7.18;;;;;;;;;;4775772;30;20435;-82
2021/11/26 19:05:59;;;;;;;11.25;6.88;;;;;;;;;;4776636;30;20038;-82
2021/11/26 19:08:25;;;;;;;15.60;8.43;;;;;;;;;;4775287;30;20052;-81
2021/11/26 19:10:51;;;;;;;16.92;9.90;;;;;;;;;;4775416;30;20047;-82
2021/11/26 19:13:18;;;;;;;12.95;7.53;;;;;;;;;;4775056;30;20035;-83
2021/11/26 19:15:45;;;;;;;15.52;9.40;;;;;;;;;;4760541;30;20040;-83
2021/11/26 19:18:12;;;;;;;11.73;7.43;;;;;;;;;;4766832;30;20032;-80
2021/11/26 19:20:38;;;;;;;12.82;6.53;;;;;;;;;;4784287;30;20040;-81
2021/11/26 19:23:04;;;;;;;10.32;5.70;;;;;;;;;;4756746;30;20429;-82
2021/11/26 19:25:32;;;;;;;12.93;6.13;;;;;;;;;;4756788;30;20513;-80
2021/11/26 19:28:01;;;;;;;8.95;5.75;;;;;;;;;;4775060;30;20395;-82
2021/11/26 19:30:28;;;;;;;11.07;5.90;;;;;;;;;;4773842;30;20096;-81
2021/11/26 19:32:54;;;;;;;9.32;5.57;;;;;;;;;;4773203;30;20035;-81
2021/11/26 19:35:21;;;;;;;12.20;6.32;;;;;;;;;;4774011;30;20219;-81
2021/11/26 19:37:49;;;;;;;9.73;5.57;;;;;;;;;;4773816;30;20115;-81
2021/11/26 19:40:20;;;;;;;10.93;6.68;;;;;;;;;;4775004;30;20028;-81
2021/11/26 19:42:48;;;;;;;10.18;5.68;;;;;;;;;;4774438;30;20040;-83
2021/11/26 19:45:14;;;;;;;9.75;5.85;;;;;;;;;;4774816;30;20046;-82
2021/11/26 19:47:40;;;;;;;12.70;6.70;;;;;;;;;;4774574;30;20032;-82
2021/11/26 19:50:08;;;;;;;12.85;7.20;;;;;;;;;;4777015;30;20433;-81
2021/11/26 19:52:34;;;;;;;14.32;7.30;;;;;;;;;;4776418;30;20047;-82
2021/11/26 19:55:00;;;;;;;9.40;5.38;;;;;;;;;;4776530;30;20115;-82
2021/11/26 19:57:26;;;;;;;11.98;6.63;;;;;;;;;;4760781;30;20043;-81
2021/11/26 19:59:54;;;;;;;12.38;7.68;;;;;;;;;;4775307;30;20032;-81
2021/11/26 20:02:20;;;;;;;13.55;7.03;;;;;;;;;;4774217;30;20379;-82
2021/11/26 20:04:47;;;;;;;13.75;7.43;;;;;;;;;;4773016;30;20035;-81
2021/11/26 20:07:13;;;;;;;14.77;6.85;;;;;;;;;;4757324;30;20044;-82
2021/11/26 20:09:41;;;;;;;12.95;7.72;;;;;;;;;;4773776;30;20437;-81
2021/11/26 20:12:07;;;;;;;16.05;9.00;;;;;;;;;;4772723;30;20093;-79
2021/11/26 20:14:34;;;;;;;13.35;7.75;;;;;;;;;;4772965;30;20100;-82
2021/11/26 20:17:02;;;;;;;15.00;8.07;;;;;;;;;;4757015;30;20076;-83
2021/11/26 20:19:29;;;;;;;14.70;8.50;;;;;;;;;;4772156;30;20392;-82
2021/11/26 20:21:55;;;;;;;14.65;8.45;;;;;;;;;;4773403;30;20405;-82
2021/11/26 20:24:22;;;;;;;12.45;7.13;;;;;;;;;;4757173;30;20032;-83
2021/11/26 20:26:48;;;;;;;12.90;8.52;;;;;;;;;;4773050;30;20028;-82
2021/11/26 20:29:15;;;;;;;15.30;8.43;;;;;;;;;;4773083;30;20040;-83
2021/11/26 20:31:41;;;;;;;14.80;8.65;;;;;;;;;;4773256;30;20035;-83
2021/11/26 20:34:08;;;;;;;17.90;9.02;;;;;;;;;;4771530;30;20027;-84
2021/11/26 20:36:34;;;;;;;16.48;9.02;;;;;;;;;;4772697;30;20394;-83
2021/11/26 20:39:00;;;;;;;14.00;9.48;;;;;;;;;;4756336;30;20036;-81
2021/11/26 20:41:26;;;;;;;16.15;9.02;;;;;;;;;;4772933;30;20031;-82
2021/11/26 20:43:52;;;;;;;16.95;10.55;;;;;;;;;;4764851;30;20150;-82
2021/11/26 20:46:19;;;;;;;16.83;10.45;;;;;;;;;;4772622;30;20107;-83
2021/11/26 20:48:45;;;;;;;15.90;9.55;;;;;;;;;;4756146;30;20031;-82
2021/11/26 20:51:11;;;;;;;14.88;9.15;;;;;;;;;;4756017;30;20035;-81
2021/11/26 20:53:38;;;;;;;19.02;9.02;;;;;;;;;;4756615;30;20035;-81
2021/11/26 20:56:04;;;;;;;16.42;8.98;;;;;;;;;;4755723;30;20043;-82
2021/11/26 20:58:30;;;;;;;17.48;9.90;;;;;;;;;;4773845;30;20403;-81
2021/11/26 21:00:57;;;;;;;15.80;9.15;;;;;;;;;;4772792;30;20479;-80
2021/11/26 21:03:23;;;;;;;19.77;9.45;;;;;;;;;;4774055;30;20111;-83
2021/11/26 21:05:49;;;;;;;16.58;9.55;;;;;;;;;;4790630;29;20058;-83
2021/11/26 21:08:15;;;;;;;16.52;9.75;;;;;;;;;;4789855;30;20069;-82
2021/11/26 21:10:41;;;;;;;16.58;9.50;;;;;;;;;;4773980;30;20039;-83
2021/11/26 21:13:07;;;;;;;17.67;9.55;;;;;;;;;;4773446;30;20028;-81
2021/11/26 21:15:33;;;;;;;16.42;10.15;;;;;;;;;;4758255;30;20032;-82
2021/11/26 21:18:00;;;;;;;16.48;10.05;;;;;;;;;;4755609;30;20254;-83
2021/11/26 21:20:26;;;;;;;17.80;9.85;;;;;;;;;;4757170;30;20065;-83
2021/11/26 21:22:55;;;;;;;16.95;9.50;;;;;;;;;;4773744;30;20085;-82
2021/11/26 21:25:21;;;;;;;18.45;9.95;;;;;;;;;;4773098;30;20031;-82
2021/11/26 21:27:48;;;;;;;19.20;10.13;;;;;;;;;;4760163;30;20092;-82
2021/11/26 21:30:14;;;;;;;18.67;9.88;;;;;;;;;;4759062;30;20042;-82
2021/11/26 21:32:40;;;;;;;17.25;10.05;;;;;;;;;;4757376;30;20032;-83
2021/11/26 21:35:08;;;;;;;19.05;10.75;;;;;;;;;;4771929;30;20027;-82
2021/11/26 21:37:34;;;;;;;20.10;10.88;;;;;;;;;;4772087;30;20042;-82
2021/11/26 21:40:00;;;;;;;18.23;10.90;;;;;;;;;;4755503;30;20491;-82
2021/11/26 21:42:26;;;;;;;20.13;11.10;;;;;;;;;;4755229;30;20398;-83
2021/11/26 21:44:54;;;;;;;19.55;11.05;;;;;;;;;;4754696;30;20036;-83
2021/11/26 21:47:21;;;;;;;21.30;10.48;;;;;;;;;;4755467;30;20028;-83
2021/11/26 21:49:47;;;;;;;21.25;11.40;;;;;;;;;;4771910;30;20036;-83
2021/11/26 21:52:13;;;;;;;20.02;11.02;;;;;;;;;;4757805;30;20397;-83
2021/11/26 21:54:39;;;;;;;19.13;11.63;;;;;;;;;;4757479;30;20710;-82
2021/11/26 21:57:05;;;;;;;17.70;10.15;;;;;;;;;;4759647;30;20047;-84
2021/11/26 21:59:31;;;;;;;20.65;11.40;;;;;;;;;;4759071;30;20040;-84
2021/11/26 22:02:02;;;;;;;19.08;9.98;;;;;;;;;;4759647;30;20044;-84
2021/11/26 22:04:28;;;;;;;18.63;9.82;;;;;;;;;;4758685;30;20047;-85
2021/11/26 22:06:56;;;;;;;18.55;11.48;;;;;;;;;;4774238;30;20051;-85
2021/11/26 22:09:22;;;;;;;21.23;10.77;;;;;;;;;;4773402;30;20035;-84
2021/11/26 22:11:48;;;;;;;20.13;10.57;;;;;;;;;;4757716;30;20501;-85
2021/11/26 22:14:14;;;;;;;19.15;10.70;;;;;;;;;;4760812;30;20031;-84
2021/11/26 22:16:40;;;;;;;21.33;10.68;;;;;;;;;;4773994;30;20050;-84
2021/11/26 22:19:07;;;;;;;18.30;10.88;;;;;;;;;;4756550;30;20558;-85
2021/11/26 22:21:33;;;;;;;21.73;11.52;;;;;;;;;;4772799;30;20032;-84
2021/11/26 22:23:59;;;;;;;21.33;11.23;;;;;;;;;;4757297;30;20118;-84
2021/11/26 22:26:25;;;;;;;19.75;11.48;;;;;;;;;;4758280;30;20036;-85
2021/11/26 22:28:51;;;;;;;20.13;12.00;;;;;;;;;;4757264;30;20059;-85
2021/11/26 22:31:17;;;;;;;20.35;11.75;;;;;;;;;;4772369;30;20483;-86
2021/11/26 22:33:43;;;;;;;21.75;12.02;;;;;;;;;;4772121;30;20044;-83
2021/11/26 22:36:10;;;;;;;23.17;11.05;;;;;;;;;;4774151;30;20055;-86
2021/11/26 22:38:36;;;;;;;22.00;11.15;;;;;;;;;;4775587;30;20066;-86
2021/11/26 22:41:02;;;;;;;22.55;12.50;;;;;;;;;;4774288;30;20039;-85
2021/11/26 22:43:29;;;;;;;23.30;12.35;;;;;;;;;;4773515;30;20044;-84
2021/11/26 22:45:55;;;;;;;22.63;13.50;;;;;;;;;;4774871;30;20043;-84
2021/11/26 22:48:21;;;;;;;21.08;11.60;;;;;;;;;;4757449;30;20041;-86
2021/11/26 22:50:48;;;;;;;20.85;10.35;;;;;;;;;;4772586;30;20035;-85
2021/11/26 22:53:15;;;;;;;22.15;12.25;;;;;;;;;;4760366;30;20031;-85
2021/11/26 22:55:41;;;;;;;26.73;14.80;;;;;;;;;;4783839;30;20032;-86
2021/11/26 22:58:07;;;;;;;23.05;12.05;;;;;;;;;;4778651;30;20038;-84
2021/11/26 23:00:36;;;;;;;28.55;16.17;;;;;;;;;;4785736;29;20115;-83
2021/11/26 23:03:05;;;;;;;25.60;13.18;;;;;;;;;;4778019;30;20449;-85
2021/11/26 23:05:31;;;;;;;25.38;13.32;;;;;;;;;;4760059;30;20032;-85
2021/11/26 23:07:58;;;;;;;23.38;12.98;;;;;;;;;;4775559;30;20032;-85
2021/11/26 23:10:24;;;;;;;26.08;12.48;;;;;;;;;;4775444;30;20032;-86
2021/11/26 23:12:51;;;;;;;22.60;12.50;;;;;;;;;;4775779;30;20046;-85
2021/11/26 23:15:19;;;;;;;22.55;12.60;;;;;;;;;;4776576;30;20587;-83
2021/11/26 23:17:47;;;;;;;24.23;12.02;;;;;;;;;;4774547;30;20043;-85
2021/11/26 23:20:17;;;;;;;23.30;11.60;;;;;;;;;;4757790;30;20059;-84
2021/11/26 23:22:43;;;;;;;22.90;12.80;;;;;;;;;;4774253;30;20039;-85
2021/11/26 23:25:09;;;;;;;25.95;13.57;;;;;;;;;;4775328;30;20032;-85
2021/11/26 23:27:36;;;;;;;23.05;13.43;;;;;;;;;;4774853;30;20429;-84
2021/11/26 23:30:04;;;;;;;24.65;12.48;;;;;;;;;;4756723;30;20254;-83
2021/11/26 23:32:30;;;;;;;23.77;13.18;;;;;;;;;;4772612;30;20028;-83
2021/11/26 23:34:56;;;;;;;20.65;12.05;;;;;;;;;;4772644;30;20468;-82
2021/11/26 23:37:22;;;;;;;25.83;12.45;;;;;;;;;;4773318;30;20028;-83
2021/11/26 23:39:48;;;;;;;20.70;11.63;;;;;;;;;;4772705;30;20522;-84
2021/11/26 23:42:14;;;;;;;24.92;12.73;;;;;;;;;;4757031;30;20030;-84
2021/11/26 23:44:40;;;;;;;25.95;12.88;;;;;;;;;;4756979;30;20032;-82
2021/11/26 23:47:06;;;;;;;26.13;13.18;;;;;;;;;;4757452;30;20040;-84
2021/11/26 23:49:32;;;;;;;26.60;13.10;;;;;;;;;;4758849;30;20032;-83
2021/11/26 23:51:58;;;;;;;23.67;13.50;;;;;;;;;;4773259;30;20035;-82
2021/11/26 23:54:24;;;;;;;25.02;13.57;;;;;;;;;;4772830;30;20035;-83
2021/11/26 23:56:50;;;;;;;21.92;12.40;;;;;;;;;;4774452;30;20043;-84
2021/11/26 23:59:16;;;;;;;25.55;13.40;;;;;;;;;;4758132;30;20063;-83
